Huvudsida
METAR-TAF:

METAR-TAF

Flygplatser :

Rundu, Namibia

latitud: 17-57-20S, longitud: 019-43-25E, höjd: 1106 m

Aktuellt väderrapport

Denna rapport gjordes för 59 minuter sedan, klockan 08:00 UTC
Vind 8 kt från ost/sydost
Temperatur 18°C
Fuktighet 45%
Tryck 1029 hPa

METAR: FYRU 250800Z AUTO 11008KT //// // ////// 18/06 Q1029

Tid: 10:59 (08:59 UTC)

Väderprognos

Denna rapport gjordes för 15 timmar och 59 minuter sedan, klockan 17:00 UTC
Prognos gäller från 24 kl. 18 UTC till 25 kl. 03 UTC
Vind 6 kt från ost/sydost
Sikt 10 km eller mer
Inga moln under 1 500 m eller inga cumulonimbus

TAF: FYRU 241700Z 2418/2503 12006KT CAVOK

Aktuella väderrapporter och prognoser från 4000 flygplatser (METAR- och TAF-rapporter).

De tillgängliga stationerna syns som gula och röda prickar på kartan.

För musen över prickarna för att se namnen på stationerna.

Klicka sedan för att få väderrapporter och prognoser.

För att ändra kartan: Klicka på de gröna knapparna med ett svart kors på för att zooma in; den gröna knappen med ett streck på för att zooma ut; eller på de gröna pilarna för angränsande kartor.


METAR-TAF: